createdAt,value
2022-12-08T00:01:07.525Z,100109.97
2022-12-08T00:03:38.147Z,100110.06
2022-12-08T00:06:31.823Z,100121.22
2022-12-08T00:09:21.607Z,100123.81
2022-12-08T00:11:56.186Z,100128.84
2022-12-08T00:14:28.636Z,100127.94
2022-12-08T00:16:59.574Z,100123.69
2022-12-08T00:19:30.055Z,100129.84
2022-12-08T00:22:00.615Z,100129.03
2022-12-08T00:24:35.009Z,100134.16
2022-12-08T00:27:07.238Z,100129.84
2022-12-08T00:29:37.225Z,100121.22
2022-12-08T00:32:08.453Z,100133.34
2022-12-08T00:34:38.525Z,100134.13
2022-12-08T00:37:08.875Z,100138.50
2022-12-08T00:39:38.875Z,100128.81
2022-12-08T00:42:13.899Z,100151.69
2022-12-08T00:44:44.767Z,100149.78
2022-12-08T00:47:18.726Z,100152.16
2022-12-08T00:49:52.333Z,100156.34
2022-12-08T00:52:22.957Z,100164.13
2022-12-08T00:54:52.946Z,100157.19
2022-12-08T00:57:24.806Z,100160.72
2022-12-08T00:59:54.861Z,100165.16
2022-12-08T01:02:25.175Z,100171.16
2022-12-08T01:04:55.165Z,100170.25
2022-12-08T01:07:25.592Z,100175.50
2022-12-08T01:09:55.465Z,100172.97
2022-12-08T01:12:27.444Z,100177.25
2022-12-08T01:15:02.070Z,100174.66
2022-12-08T01:17:34.115Z,100187.75
2022-12-08T01:20:04.311Z,100186.19
2022-12-08T01:22:36.718Z,100187.91
2022-12-08T01:25:07.139Z,100183.47
2022-12-08T01:27:39.004Z,100175.88
2022-12-08T01:30:10.226Z,100182.91
2022-12-08T01:32:40.177Z,100188.03
2022-12-08T01:35:11.066Z,100195.00
2022-12-08T01:37:41.376Z,100190.56
2022-12-08T01:40:12.029Z,100187.06
2022-12-08T01:42:43.789Z,100193.16
2022-12-08T01:45:23.408Z,100196.66
2022-12-08T01:47:58.096Z,100193.25
2022-12-08T01:50:29.586Z,100190.66
2022-12-08T01:53:03.769Z,100182.00
2022-12-08T01:55:38.598Z,100191.56
2022-12-08T01:58:17.660Z,100195.00
2022-12-08T02:00:49.176Z,100200.16
2022-12-08T02:03:26.051Z,100201.16
2022-12-08T02:05:56.428Z,100211.50
2022-12-08T02:08:27.669Z,100207.19
2022-12-08T02:10:57.701Z,100207.19
2022-12-08T02:13:29.669Z,100208.06
2022-12-08T02:16:03.380Z,100213.25
2022-12-08T02:19:29.187Z,100217.59
2022-12-08T02:21:57.339Z,100214.00
2022-12-08T02:24:35.417Z,100214.88
2022-12-08T02:27:30.168Z,100217.47
2022-12-08T02:30:20.169Z,100220.09
2022-12-08T02:33:23.128Z,100218.97
2022-12-08T02:36:01.151Z,100211.84
2022-12-08T02:38:50.262Z,100226.84
2022-12-08T02:41:33.690Z,100229.19
2022-12-08T02:44:10.588Z,100225.69
2022-12-08T02:46:47.562Z,100226.53
2022-12-08T02:49:17.577Z,100231.63
2022-12-08T02:51:49.469Z,100240.25
2022-12-08T02:54:19.078Z,100233.41
2022-12-08T02:57:09.582Z,100242.94
2022-12-08T02:59:54.080Z,100243.81
2022-12-08T03:02:45.037Z,100236.03
2022-12-08T03:05:31.637Z,100234.28
2022-12-08T03:08:10.185Z,100235.97
2022-12-08T03:10:46.720Z,100238.66
2022-12-08T03:13:21.961Z,100236.03
2022-12-08T03:15:54.600Z,100236.03
2022-12-08T03:18:30.584Z,100229.19
2022-12-08T03:21:02.012Z,100228.22
2022-12-08T03:23:34.319Z,100232.50
2022-12-08T03:26:15.360Z,100234.16
2022-12-08T03:28:46.159Z,100242.78
2022-12-08T03:31:19.481Z,100242.50
2022-12-08T03:33:54.029Z,100249.41
2022-12-08T03:36:25.260Z,100246.00
2022-12-08T03:38:56.599Z,100248.84
2022-12-08T03:41:27.661Z,100256.69
2022-12-08T03:43:59.830Z,100251.53
2022-12-08T03:49:00.641Z,100254.97
2022-12-08T03:51:30.691Z,100254.22
2022-12-08T03:54:02.511Z,100254.41
2022-12-08T03:56:34.499Z,100250.41
2022-12-08T03:59:05.735Z,100255.75
2022-12-08T04:01:36.276Z,100261.91
2022-12-08T04:04:06.707Z,100249.19
2022-12-08T04:06:36.759Z,100257.19
2022-12-08T04:09:08.563Z,100251.25
2022-12-08T04:11:38.620Z,100256.53
2022-12-08T04:14:08.913Z,100258.50
2022-12-08T04:16:40.038Z,100262.78
2022-12-08T04:19:10.059Z,100264.47
2022-12-08T04:21:40.157Z,100267.06
2022-12-08T04:24:12.089Z,100260.06
2022-12-08T04:26:41.769Z,100271.34
2022-12-08T04:29:12.220Z,100266.13
2022-12-08T04:31:42.310Z,100282.63
2022-12-08T04:34:12.720Z,100275.75
2022-12-08T04:36:42.698Z,100276.50
2022-12-08T04:39:14.590Z,100275.50
2022-12-08T04:41:44.719Z,100275.25
2022-12-08T04:44:15.168Z,100286.41
2022-12-08T04:46:45.330Z,100283.75
2022-12-08T04:49:16.639Z,100289.75
2022-12-08T04:51:46.619Z,100288.97
2022-12-08T04:54:18.520Z,100289.75
2022-12-08T04:56:48.520Z,100302.63
2022-12-08T04:59:18.768Z,100294.09
2022-12-08T05:01:49.061Z,100300.34
2022-12-08T05:04:19.549Z,100294.28
2022-12-08T05:06:49.628Z,100297.00
2022-12-08T05:09:21.630Z,100297.06
2022-12-08T05:11:51.839Z,100303.25
2022-12-08T05:14:22.758Z,100299.88
2022-12-08T05:16:53.027Z,100303.25
2022-12-08T05:19:23.753Z,100294.53
2022-12-08T05:21:53.712Z,100302.16
2022-12-08T05:24:25.764Z,100303.75
2022-12-08T05:26:56.054Z,100313.22
2022-12-08T05:29:26.952Z,100308.09
2022-12-08T05:31:57.517Z,100311.63
2022-12-08T05:34:28.146Z,100323.75
2022-12-08T05:36:58.131Z,100325.47
2022-12-08T05:39:30.231Z,100318.59
2022-12-08T05:42:01.092Z,100267.56
2022-12-08T05:44:31.541Z,100324.81
2022-12-08T05:47:01.341Z,100311.94
2022-12-08T05:49:31.684Z,100323.38
2022-12-08T05:52:01.542Z,100329.50
2022-12-08T05:54:33.285Z,100348.63
2022-12-08T05:57:02.979Z,100342.44
2022-12-08T05:59:33.336Z,100337.06
2022-12-08T06:02:03.390Z,100347.34
2022-12-08T06:04:33.892Z,100345.47
2022-12-08T06:07:03.975Z,100349.84
2022-12-08T06:09:35.884Z,100346.16
2022-12-08T06:12:06.035Z,100355.53
2022-12-08T06:14:36.395Z,100357.97
2022-12-08T06:17:06.455Z,100366.50
2022-12-08T06:19:36.872Z,100362.88
2022-12-08T06:22:06.712Z,100375.78
2022-12-08T06:24:38.624Z,100363.72
2022-12-08T06:27:08.493Z,100374.22
2022-12-08T06:29:38.829Z,100369.28
2022-12-08T06:32:09.195Z,100369.41
2022-12-08T06:34:41.041Z,100371.09
2022-12-08T06:37:10.904Z,100374.38
2022-12-08T06:39:42.824Z,100372.72
2022-12-08T06:42:32.042Z,100377.25
2022-12-08T06:45:03.361Z,100393.03
2022-12-08T06:47:33.493Z,100380.81
2022-12-08T06:50:04.366Z,100390.41
2022-12-08T06:52:37.688Z,100394.94
2022-12-08T06:55:29.097Z,100390.63
2022-12-08T06:58:03.584Z,100398.38
2022-12-08T07:00:33.952Z,100396.56
2022-12-08T07:03:04.054Z,100406.06
2022-12-08T07:05:34.482Z,100402.53
2022-12-08T07:08:04.819Z,100408.66
2022-12-08T07:10:37.204Z,100410.34
2022-12-08T07:13:07.492Z,100416.50
2022-12-08T07:15:38.075Z,100418.97
2022-12-08T07:18:08.082Z,100415.50
2022-12-08T07:20:38.746Z,100419.72
2022-12-08T07:23:08.595Z,100417.00
2022-12-08T07:25:40.643Z,100415.13
2022-12-08T07:28:12.343Z,100423.75
2022-12-08T07:30:42.872Z,100431.75
2022-12-08T07:33:12.874Z,100422.16
2022-12-08T07:35:49.013Z,100435.13
2022-12-08T07:38:19.667Z,100425.41
2022-12-08T07:40:51.932Z,100438.38
2022-12-08T07:43:21.919Z,100442.81
2022-12-08T07:45:53.642Z,100441.06
2022-12-08T07:48:24.247Z,100444.56
2022-12-08T07:51:02.958Z,100444.44
2022-12-08T07:53:33.824Z,100453.97
2022-12-08T07:56:09.013Z,100466.16
2022-12-08T07:58:39.309Z,100463.34
2022-12-08T08:01:19.960Z,100467.59
2022-12-08T08:03:50.084Z,100474.66
2022-12-08T08:06:20.386Z,100475.53
2022-12-08T08:08:51.296Z,100473.00
2022-12-08T08:11:26.166Z,100469.53
2022-12-08T08:13:56.213Z,100463.50
2022-12-08T08:16:26.658Z,100464.53
2022-12-08T08:18:56.796Z,100459.50
2022-12-08T08:21:45.022Z,100398.72
2022-12-08T08:24:16.085Z,100459.72
2022-12-08T08:26:47.829Z,100458.88
2022-12-08T08:29:17.977Z,100468.44
2022-12-08T08:31:48.293Z,100471.16
2022-12-08T08:34:18.785Z,100469.44
2022-12-08T08:36:49.193Z,100476.34
2022-12-08T08:39:19.338Z,100483.31
2022-12-08T08:41:51.184Z,100488.59
2022-12-08T08:44:20.883Z,100496.53
2022-12-08T08:46:51.126Z,100491.44
2022-12-08T08:49:21.723Z,100502.66
2022-12-08T08:51:52.812Z,100504.41
2022-12-08T08:54:22.873Z,100510.66
2022-12-08T08:56:55.104Z,100516.78
2022-12-08T08:59:24.864Z,100518.66
2022-12-08T09:01:56.307Z,100512.69
2022-12-08T09:04:27.128Z,100521.44
2022-12-08T09:06:58.135Z,100518.13
2022-12-08T09:09:29.072Z,100524.31
2022-12-08T09:12:01.563Z,100522.66
2022-12-08T09:14:31.569Z,100521.03
2022-12-08T09:17:02.305Z,100523.78
2022-12-08T09:19:32.574Z,100516.72
2022-12-08T09:22:03.105Z,100514.13
2022-12-08T09:24:33.533Z,100514.97
2022-12-08T09:27:05.531Z,100501.03
2022-12-08T09:29:36.391Z,100502.88
2022-12-08T09:32:07.506Z,100506.38
2022-12-08T09:34:37.674Z,100502.91
2022-12-08T09:37:08.377Z,100502.91
2022-12-08T09:39:38.322Z,100500.28
2022-12-08T09:42:12.073Z,100493.25
2022-12-08T09:44:57.654Z,100491.63
2022-12-08T09:47:36.068Z,100491.63
2022-12-08T09:50:14.334Z,100489.00
2022-12-08T09:52:48.916Z,100482.94
2022-12-08T09:55:27.097Z,100475.13
2022-12-08T09:58:05.165Z,100474.25
2022-12-08T10:00:35.958Z,100471.78
2022-12-08T10:03:06.705Z,100471.78
2022-12-08T10:05:43.412Z,100471.81
2022-12-08T10:08:22.519Z,100476.25
2022-12-08T10:10:58.692Z,100471.06
2022-12-08T10:13:39.114Z,100466.72
2022-12-08T10:16:26.609Z,100464.13
2022-12-08T10:19:11.974Z,100466.72
2022-12-08T10:21:42.404Z,100475.44
2022-12-08T10:24:20.753Z,100468.34
2022-12-08T10:26:51.771Z,100475.34
2022-12-08T10:29:23.819Z,100478.78
2022-12-08T10:31:53.949Z,100459.63
2022-12-08T10:34:25.713Z,100460.44
2022-12-08T10:36:57.560Z,100460.38
2022-12-08T10:39:34.977Z,100448.16
2022-12-08T10:42:35.488Z,100462.09
2022-12-08T10:45:26.351Z,100456.88
2022-12-08T10:48:03.479Z,100454.31
2022-12-08T10:50:36.816Z,100454.25
2022-12-08T10:53:15.741Z,100445.66
2022-12-08T10:55:48.097Z,100453.50
2022-12-08T10:58:34.121Z,100446.59
2022-12-08T11:01:11.434Z,100449.28
2022-12-08T11:03:48.088Z,100451.94
2022-12-08T11:06:21.520Z,100450.22
2022-12-08T11:08:54.419Z,100453.81
2022-12-08T11:11:40.781Z,100456.41
2022-12-08T11:14:17.809Z,100449.34
2022-12-08T11:16:51.208Z,100451.94
2022-12-08T11:19:28.139Z,100450.22
2022-12-08T11:21:58.910Z,100441.81
2022-12-08T11:24:36.032Z,100439.19
2022-12-08T11:27:09.179Z,100435.66
2022-12-08T11:29:39.399Z,100441.78
2022-12-08T11:32:15.380Z,100435.72
2022-12-08T11:34:48.537Z,100428.75
2022-12-08T11:37:27.489Z,100435.56
2022-12-08T11:40:04.898Z,100426.00
2022-12-08T11:42:40.600Z,100411.16
2022-12-08T11:45:19.420Z,100426.06
2022-12-08T11:47:58.666Z,100420.72
2022-12-08T11:50:31.849Z,100422.25
2022-12-08T11:53:03.318Z,100423.03
2022-12-08T11:55:45.221Z,100424.63
2022-12-08T11:58:23.943Z,100419.44
2022-12-08T12:00:53.909Z,100412.41
2022-12-08T12:03:35.032Z,100410.72
2022-12-08T12:06:54.763Z,100407.09
2022-12-08T12:09:38.569Z,100410.59
2022-12-08T12:12:17.506Z,100415.59
2022-12-08T12:15:20.200Z,100411.25
2022-12-08T12:17:54.794Z,100396.38
2022-12-08T12:20:31.440Z,100397.25
2022-12-08T12:23:09.175Z,100390.31
2022-12-08T12:25:48.759Z,100390.16
2022-12-08T12:28:19.259Z,100393.56
2022-12-08T12:30:58.395Z,100389.94
2022-12-08T12:33:28.958Z,100388.88
2022-12-08T12:36:07.133Z,100390.59
2022-12-08T12:38:56.556Z,100381.97
2022-12-08T12:41:30.038Z,100386.25
2022-12-08T12:44:26.646Z,100381.78
2022-12-08T12:46:59.867Z,100381.78
2022-12-08T12:49:54.616Z,100376.63
2022-12-08T12:52:56.917Z,100373.06
2022-12-08T12:55:52.769Z,100375.53
2022-12-08T12:58:42.952Z,100378.09
2022-12-08T13:01:51.210Z,100374.47
2022-12-08T13:04:29.798Z,100372.66
2022-12-08T13:07:00.684Z,100375.19
2022-12-08T13:09:37.548Z,100373.41
2022-12-08T13:12:15.033Z,100375.94
2022-12-08T13:14:51.108Z,100377.66
2022-12-08T13:17:29.512Z,100368.84
2022-12-08T13:20:02.988Z,100374.06
2022-12-08T13:23:11.090Z,100375.75
2022-12-08T13:26:12.635Z,100382.69
2022-12-08T13:29:24.276Z,100374.81
2022-12-08T13:31:56.294Z,100373.13
2022-12-08T13:34:36.338Z,100372.28
2022-12-08T13:37:24.088Z,100373.16
2022-12-08T13:39:57.359Z,100377.44
2022-12-08T13:42:38.958Z,100371.34
2022-12-08T13:45:48.719Z,100371.25
2022-12-08T13:48:35.188Z,100381.69
2022-12-08T13:53:15.840Z,100369.47
2022-12-08T13:55:01.390Z,100366.03
2022-12-08T13:57:11.460Z,100372.13
2022-12-08T13:59:47.572Z,100369.34
2022-12-08T14:02:22.668Z,100367.63
2022-12-08T14:05:17.451Z,100371.03
2022-12-08T14:07:45.444Z,100368.56
2022-12-08T14:10:20.638Z,100365.19
2022-12-08T14:12:58.337Z,100369.59
2022-12-08T14:15:36.870Z,100369.47
2022-12-08T14:18:24.503Z,100366.88
2022-12-08T14:21:21.640Z,100361.69
2022-12-08T14:23:52.103Z,100357.28
2022-12-08T14:26:22.670Z,100358.22
2022-12-08T14:28:54.540Z,100363.50
2022-12-08T14:31:27.241Z,100357.31
2022-12-08T14:33:58.640Z,100354.69
2022-12-08T14:36:29.327Z,100352.94
2022-12-08T14:39:00.690Z,100346.75
2022-12-08T14:41:35.149Z,100343.28
2022-12-08T14:44:06.160Z,100341.63
2022-12-08T14:46:38.638Z,100345.03
2022-12-08T14:49:29.180Z,100336.34
2022-12-08T14:52:01.789Z,100346.75
2022-12-08T14:54:33.319Z,100344.97
2022-12-08T14:57:04.693Z,100350.34
2022-12-08T14:59:39.257Z,100351.22
2022-12-08T15:02:25.940Z,100349.47
2022-12-08T15:05:03.617Z,100345.03
2022-12-08T15:07:47.334Z,100345.16
2022-12-08T15:10:29.828Z,100342.53
2022-12-08T15:13:22.614Z,100348.63
2022-12-08T15:15:54.505Z,100342.53
2022-12-08T15:18:38.957Z,100339.91
2022-12-08T15:21:13.920Z,100343.28
2022-12-08T15:23:47.828Z,100338.84
2022-12-08T15:26:24.665Z,100344.09
2022-12-08T15:28:59.399Z,100328.53
2022-12-08T15:31:33.318Z,100330.25
2022-12-08T15:34:06.758Z,100320.81
2022-12-08T15:36:38.420Z,100318.19
2022-12-08T15:39:19.521Z,100316.47
2022-12-08T15:41:50.692Z,100319.06
2022-12-08T15:44:21.832Z,100315.56
2022-12-08T15:46:52.164Z,100315.56
2022-12-08T15:49:26.299Z,100316.34
2022-12-08T15:52:08.097Z,100314.63
2022-12-08T15:54:41.599Z,100314.59
2022-12-08T15:57:44.176Z,100311.09
2022-12-08T16:00:52.205Z,100313.69
2022-12-08T16:04:09.398Z,100311.16
2022-12-08T16:09:18.963Z,100299.84
2022-12-08T16:12:08.942Z,100303.44
2022-12-08T16:17:34.209Z,100295.66
2022-12-08T16:20:06.807Z,100297.41
2022-12-08T16:23:03.178Z,100291.31
2022-12-08T16:25:52.842Z,100298.25
2022-12-08T16:28:53.002Z,100293.91
2022-12-08T16:31:21.389Z,100299.16
2022-12-08T16:33:53.988Z,100280.91
2022-12-08T16:36:24.844Z,100286.25
2022-12-08T16:38:58.708Z,100290.59
2022-12-08T16:41:46.984Z,100286.25
2022-12-08T16:44:17.568Z,100287.22
2022-12-08T16:46:47.708Z,100283.66
2022-12-08T16:49:18.077Z,100277.59
2022-12-08T16:51:48.017Z,100275.84
2022-12-08T16:54:19.968Z,100273.25
2022-12-08T16:56:49.488Z,100274.09
2022-12-08T16:59:19.719Z,100268.88
2022-12-08T17:01:50.419Z,100267.19
2022-12-08T17:04:31.374Z,100271.63
2022-12-08T17:07:02.512Z,100269.03
2022-12-08T17:09:34.939Z,100274.28
2022-12-08T17:12:05.507Z,100271.69
2022-12-08T17:14:36.898Z,100259.53
2022-12-08T17:17:07.333Z,100273.47
2022-12-08T17:19:37.837Z,100270.00
2022-12-08T17:22:07.867Z,100274.38
2022-12-08T17:24:39.727Z,100271.75
2022-12-08T17:27:09.860Z,100278.78
2022-12-08T17:29:40.451Z,100277.03
2022-12-08T17:32:13.970Z,100270.94
2022-12-08T17:34:44.328Z,100270.06
2022-12-08T17:37:14.409Z,100274.44
2022-12-08T17:39:47.217Z,100283.19
2022-12-08T17:42:16.855Z,100272.75
2022-12-08T17:44:47.588Z,100274.53
2022-12-08T17:47:17.547Z,100269.31
2022-12-08T17:49:48.341Z,100260.59
2022-12-08T17:52:18.619Z,100271.88
2022-12-08T17:54:50.668Z,100264.13
2022-12-08T17:57:20.772Z,100278.03
2022-12-08T17:59:51.175Z,100271.91
2022-12-08T18:02:23.100Z,100273.66
2022-12-08T18:04:53.530Z,100279.78
2022-12-08T18:07:23.463Z,100273.66
2022-12-08T18:09:55.579Z,100276.28
2022-12-08T18:12:25.636Z,100278.03
2022-12-08T18:14:55.969Z,100235.66
2022-12-08T18:17:25.996Z,100278.91
2022-12-08T18:19:56.759Z,100284.97
2022-12-08T18:22:30.050Z,100278.03
2022-12-08T18:25:05.641Z,100274.53
2022-12-08T18:27:42.747Z,100283.25
2022-12-08T18:30:18.961Z,100285.00
2022-12-08T18:32:55.724Z,100291.00
2022-12-08T18:35:29.451Z,100294.53
2022-12-08T18:38:00.481Z,100299.72
2022-12-08T18:40:33.585Z,100305.03
2022-12-08T18:43:04.500Z,100307.72
2022-12-08T18:45:37.254Z,100299.91
2022-12-08T18:48:09.020Z,100303.38
2022-12-08T18:50:43.293Z,100307.78
2022-12-08T18:53:13.466Z,100306.91
2022-12-08T18:55:46.984Z,100302.50
2022-12-08T18:58:17.448Z,100298.16
2022-12-08T19:00:49.624Z,100306.88
2022-12-08T19:03:19.968Z,100302.50
2022-12-08T19:05:50.468Z,100303.41
2022-12-08T19:08:22.553Z,100310.31
2022-12-08T19:10:56.158Z,100305.91
2022-12-08T19:13:27.499Z,100314.63
2022-12-08T19:15:58.291Z,100300.69
2022-12-08T19:18:28.308Z,100303.38
2022-12-08T19:20:59.938Z,100305.09
2022-12-08T19:23:31.994Z,100318.03
2022-12-08T19:26:06.306Z,100323.25
2022-12-08T19:28:37.522Z,100326.75
2022-12-08T19:31:11.098Z,100328.56
2022-12-08T19:33:41.719Z,100327.69
2022-12-08T19:36:15.077Z,100331.19
2022-12-08T19:39:02.824Z,100338.13
2022-12-08T19:41:52.504Z,100337.16
2022-12-08T19:44:41.227Z,100343.31
2022-12-08T19:47:12.269Z,100340.63
2022-12-08T19:49:42.483Z,100343.06
2022-12-08T19:52:12.909Z,100345.47
2022-12-08T19:54:43.141Z,100346.06
2022-12-08T19:57:14.988Z,100343.13
2022-12-08T19:59:45.079Z,100343.47
2022-12-08T20:02:15.681Z,100346.72
2022-12-08T20:04:46.178Z,100347.22
2022-12-08T20:07:17.095Z,100353.84
2022-12-08T20:09:47.526Z,100351.56
2022-12-08T20:12:19.312Z,100353.06
2022-12-08T20:14:49.691Z,100360.28
2022-12-08T20:17:20.178Z,100373.06
2022-12-08T20:19:50.217Z,100361.66
2022-12-08T20:22:20.870Z,100365.06
2022-12-08T20:25:09.630Z,100365.72
2022-12-08T20:27:43.019Z,100366.81
2022-12-08T20:30:17.068Z,100372.19
2022-12-08T20:32:48.250Z,100370.47
2022-12-08T20:35:18.588Z,100373.66
2022-12-08T20:37:49.149Z,100388.28
2022-12-08T20:40:21.877Z,100393.34
2022-12-08T20:42:54.629Z,100396.00
2022-12-08T20:45:24.429Z,100390.25
2022-12-08T20:47:55.087Z,100389.13
2022-12-08T20:50:25.547Z,100387.69
2022-12-08T20:52:56.296Z,100391.16
2022-12-08T20:55:26.945Z,100387.00
2022-12-08T20:57:59.960Z,100388.91
2022-12-08T21:00:31.642Z,100399.31
2022-12-08T21:03:05.441Z,100406.47
2022-12-08T21:05:39.121Z,100413.47
2022-12-08T21:08:10.056Z,100417.06
2022-12-08T21:10:43.788Z,100423.16
2022-12-08T21:13:17.543Z,100435.47
2022-12-08T21:15:49.043Z,100426.06
2022-12-08T21:18:20.213Z,100428.78
2022-12-08T21:20:51.558Z,100433.25
2022-12-08T21:23:22.027Z,100436.81
2022-12-08T21:25:52.777Z,100448.19
2022-12-08T21:28:25.294Z,100452.53
2022-12-08T21:30:58.071Z,100455.22
2022-12-08T21:33:30.899Z,100450.88
2022-12-08T21:36:08.256Z,100450.81
2022-12-08T21:38:40.442Z,100458.72
2022-12-08T21:41:12.844Z,100458.91
2022-12-08T21:43:45.137Z,100454.75
2022-12-08T21:46:21.253Z,100456.59
2022-12-08T21:48:51.835Z,100458.44
2022-12-08T21:51:23.439Z,100455.94
2022-12-08T21:53:54.088Z,100457.63
2022-12-08T21:56:24.518Z,100455.94
2022-12-08T21:58:58.307Z,100454.28
2022-12-08T22:01:29.029Z,100457.81
2022-12-08T22:04:00.673Z,100461.31
2022-12-08T22:06:31.608Z,100458.69
2022-12-08T22:09:02.713Z,100455.19
2022-12-08T22:11:33.352Z,100450.81
2022-12-08T22:14:10.860Z,100455.13
2022-12-08T22:16:44.356Z,100457.69
2022-12-08T22:19:15.267Z,100464.63
2022-12-08T22:21:46.500Z,100480.19
2022-12-08T22:24:16.916Z,100469.69
2022-12-08T22:26:47.177Z,100479.22
2022-12-08T22:29:19.669Z,100443.75
2022-12-08T22:31:50.718Z,100480.72
2022-12-08T22:34:21.205Z,100482.16
2022-12-08T22:36:51.679Z,100485.19
2022-12-08T22:39:22.130Z,100497.09
2022-12-08T22:41:52.728Z,100496.25
2022-12-08T22:44:25.088Z,100496.06
2022-12-08T22:46:55.508Z,100501.41
2022-12-08T22:49:26.657Z,100501.00
2022-12-08T22:51:57.361Z,100514.19
2022-12-08T22:54:28.207Z,100510.28
2022-12-08T22:56:58.362Z,100519.50
2022-12-08T22:59:33.758Z,100515.88
2022-12-08T23:02:04.106Z,100521.75
2022-12-08T23:04:34.786Z,100524.09
2022-12-08T23:07:05.044Z,100523.03
2022-12-08T23:09:35.437Z,100523.69
2022-12-08T23:12:05.842Z,100529.56
2022-12-08T23:14:37.868Z,100518.63
2022-12-08T23:17:08.321Z,100524.34
2022-12-08T23:19:38.749Z,100532.97
2022-12-08T23:22:09.578Z,100530.41
2022-12-08T23:24:40.462Z,100527.91
2022-12-08T23:27:10.669Z,100526.84
2022-12-08T23:29:42.388Z,100535.28
2022-12-08T23:32:12.580Z,100540.44
2022-12-08T23:34:43.228Z,100538.44
2022-12-08T23:37:13.431Z,100533.25
2022-12-08T23:39:44.056Z,100534.00
2022-12-08T23:42:14.595Z,100531.88
2022-12-08T23:44:46.796Z,100537.97
2022-12-08T23:47:17.157Z,100539.72
2022-12-08T23:49:47.902Z,100546.63
2022-12-08T23:52:17.849Z,100552.66
2022-12-08T23:54:48.229Z,100555.13
2022-12-08T23:57:18.264Z,100548.22
2022-12-08T23:59:50.515Z,100550.66
